Aho, North Carolina
Current Conditions -  °F | °C
As of 8:35 PM on Wednesday 22 Oct 2014 (Local Time) from KTNB Reporting Station
Scattered Clouds Scattered Clouds  
Wind Chill:   Ceiling: Unl
Heat Index:   Visibility: 10mi
Dew Point:   Wind: 18mph
Humidity: 76%   Direction: 310°NW
Pressure: 30.13"   Gusts: 30mph
Location:  36.0473°N, 81.8148°W
Report Text: KTNB 230035Z AUTO 31016G26KT 280V340 10SM SCT016 05/01 A3013 RMK AO2 T00520012
Loading
Personal Weather Stations






























Interactive Weather Map
Tropical Storm Tracking
New forecast layout! Learn more

10-Day Weather Forecast

Advertisements
Track Severe Weather on mobile